createdAt,value
2022-10-19T00:01:03.162Z,11.13
2022-10-19T00:03:31.086Z,11.55
2022-10-19T00:05:59.383Z,11.00
2022-10-19T00:08:29.036Z,11.30
2022-10-19T00:10:56.951Z,10.90
2022-10-19T00:13:24.862Z,10.82
2022-10-19T00:15:52.821Z,11.05
2022-10-19T00:18:21.122Z,10.05
2022-10-19T00:20:49.091Z,10.40
2022-10-19T00:23:17.215Z,10.55
2022-10-19T00:25:56.977Z,9.45
2022-10-19T00:28:24.967Z,8.45
2022-10-19T00:30:52.922Z,9.48
2022-10-19T00:33:22.569Z,8.88
2022-10-19T00:35:51.205Z,8.80
2022-10-19T00:38:19.695Z,8.77
2022-10-19T00:40:49.889Z,9.00
2022-10-19T00:43:19.501Z,9.30
2022-10-19T00:45:47.926Z,9.13
2022-10-19T00:48:18.486Z,9.30
2022-10-19T00:50:47.139Z,9.50
2022-10-19T00:53:15.676Z,11.00
2022-10-19T00:55:44.163Z,9.93
2022-10-19T00:58:14.361Z,10.68
2022-10-19T01:00:42.480Z,11.00
2022-10-19T01:03:12.987Z,10.65
2022-10-19T01:05:41.964Z,12.30
2022-10-19T01:08:11.160Z,11.95
2022-10-19T01:10:46.766Z,10.95
2022-10-19T01:13:28.795Z,13.23
2022-10-19T01:16:03.109Z,13.47
2022-10-19T01:18:39.258Z,13.50
2022-10-19T01:21:20.871Z,14.38
2022-10-19T01:24:34.849Z,14.73
2022-10-19T01:27:29.510Z,15.30
2022-10-19T01:30:23.853Z,15.60
2022-10-19T01:33:04.499Z,14.87
2022-10-19T01:35:40.307Z,15.05
2022-10-19T01:38:17.696Z,15.33
2022-10-19T01:40:55.088Z,14.68
2022-10-19T01:43:33.218Z,14.23
2022-10-19T01:46:08.047Z,14.43
2022-10-19T01:48:38.887Z,13.95
2022-10-19T01:51:11.876Z,15.23
2022-10-19T01:53:43.728Z,14.43
2022-10-19T01:56:13.790Z,12.87
2022-10-19T01:58:43.537Z,12.80
2022-10-19T02:01:16.400Z,14.03
2022-10-19T02:03:45.064Z,13.70
2022-10-19T02:06:14.985Z,12.13
2022-10-19T02:08:47.253Z,13.80
2022-10-19T02:11:16.020Z,14.13
2022-10-19T02:13:46.146Z,14.13
2022-10-19T02:16:19.355Z,14.40
2022-10-19T02:18:51.693Z,14.03
2022-10-19T02:21:20.224Z,13.82
2022-10-19T02:23:50.519Z,13.05
2022-10-19T02:26:21.966Z,12.90
2022-10-19T02:28:50.380Z,14.02
2022-10-19T02:31:19.732Z,12.23
2022-10-19T02:33:47.744Z,13.82
2022-10-19T02:36:15.743Z,14.43
2022-10-19T02:38:43.886Z,15.05
2022-10-19T02:41:16.751Z,15.10
2022-10-19T02:43:49.530Z,13.23
2022-10-19T02:46:24.402Z,14.27
2022-10-19T02:48:53.140Z,12.83
2022-10-19T02:51:32.326Z,13.57
2022-10-19T02:54:04.126Z,12.65
2022-10-19T02:56:33.676Z,12.07
2022-10-19T02:59:01.991Z,13.60
2022-10-19T03:01:31.308Z,13.53
2022-10-19T03:03:59.205Z,12.57
2022-10-19T03:06:27.136Z,13.15
2022-10-19T03:08:55.053Z,12.90
2022-10-19T03:11:22.969Z,14.07
2022-10-19T03:13:50.906Z,12.80
2022-10-19T03:16:18.849Z,13.35
2022-10-19T03:18:49.229Z,13.82
2022-10-19T03:21:17.317Z,11.87
2022-10-19T03:23:45.299Z,13.97
2022-10-19T03:26:15.856Z,12.35
2022-10-19T03:28:44.004Z,13.30
2022-10-19T03:31:12.084Z,12.53
2022-10-19T03:33:40.058Z,12.77
2022-10-19T03:36:17.065Z,12.00
2022-10-19T03:38:45.000Z,12.30
2022-10-19T03:41:12.997Z,11.23
2022-10-19T03:43:41.255Z,12.13
2022-10-19T03:46:09.297Z,12.13
2022-10-19T03:48:37.591Z,11.63
2022-10-19T03:51:07.783Z,12.70
2022-10-19T03:53:37.427Z,11.93
2022-10-19T03:56:07.286Z,11.60
2022-10-19T03:58:38.504Z,11.60
2022-10-19T04:01:10.325Z,12.27
2022-10-19T04:03:38.616Z,10.93
2022-10-19T04:06:08.619Z,11.43
2022-10-19T04:08:38.139Z,10.93
2022-10-19T04:11:08.750Z,11.20
2022-10-19T04:13:37.122Z,11.00
2022-10-19T04:16:05.315Z,11.10
2022-10-19T04:18:33.264Z,10.33
2022-10-19T04:21:02.993Z,11.27
2022-10-19T04:23:33.665Z,11.03
2022-10-19T04:26:04.377Z,10.13
2022-10-19T04:28:32.879Z,10.13
2022-10-19T04:31:03.483Z,10.13
2022-10-19T04:33:31.419Z,9.80
2022-10-19T04:36:00.198Z,9.80
2022-10-19T04:38:28.561Z,10.93
2022-10-19T04:40:56.955Z,9.27
2022-10-19T04:43:26.239Z,8.83
2022-10-19T04:45:54.209Z,9.07
2022-10-19T04:48:23.123Z,10.10
2022-10-19T04:50:51.010Z,9.10
2022-10-19T04:53:19.399Z,8.73
2022-10-19T04:55:47.371Z,8.57
2022-10-19T04:58:15.255Z,9.20
2022-10-19T05:00:44.675Z,9.57
2022-10-19T05:03:12.649Z,9.40
2022-10-19T05:05:40.598Z,7.93
2022-10-19T05:08:10.904Z,9.17
2022-10-19T05:10:40.465Z,9.00
2022-10-19T05:13:09.180Z,9.10
2022-10-19T05:15:37.137Z,8.53
2022-10-19T05:18:06.449Z,8.70
2022-10-19T05:20:34.423Z,9.53
2022-10-19T05:23:06.246Z,9.30
2022-10-19T05:25:35.386Z,9.37
2022-10-19T05:28:03.323Z,9.10
2022-10-19T05:30:31.611Z,9.03
2022-10-19T05:32:59.647Z,8.77
2022-10-19T05:35:28.919Z,9.10
2022-10-19T05:37:56.840Z,7.77
2022-10-19T05:40:24.736Z,7.65
2022-10-19T05:42:52.619Z,8.00
2022-10-19T05:45:20.505Z,7.70
2022-10-19T05:47:48.368Z,8.17
2022-10-19T05:50:16.414Z,7.75
2022-10-19T05:52:45.662Z,7.20
2022-10-19T05:55:13.608Z,7.03
2022-10-19T05:57:41.505Z,7.77
2022-10-19T06:00:10.906Z,6.50
2022-10-19T06:02:38.829Z,6.63
2022-10-19T06:05:07.762Z,6.87
2022-10-19T06:07:35.946Z,6.67
2022-10-19T06:10:06.032Z,7.07
2022-10-19T06:12:33.939Z,6.80
2022-10-19T06:15:01.855Z,7.22
2022-10-19T06:17:30.107Z,7.40
2022-10-19T06:19:58.022Z,7.43
2022-10-19T06:22:26.063Z,7.17
2022-10-19T06:24:53.990Z,7.27
2022-10-19T06:27:23.422Z,9.60
2022-10-19T06:29:51.340Z,9.27
2022-10-19T06:32:19.263Z,7.57
2022-10-19T06:34:47.178Z,8.47
2022-10-19T06:37:15.123Z,7.87
2022-10-19T06:39:43.075Z,7.90
2022-10-19T06:42:11.029Z,9.60
2022-10-19T06:44:40.333Z,7.10
2022-10-19T06:47:08.218Z,8.53
2022-10-19T06:49:37.212Z,7.97
2022-10-19T06:52:05.847Z,8.00
2022-10-19T06:54:33.758Z,6.80
2022-10-19T06:57:01.689Z,7.43
2022-10-19T06:59:29.635Z,6.57
2022-10-19T07:01:58.908Z,5.30
2022-10-19T07:04:26.872Z,5.50
2022-10-19T07:06:54.769Z,5.33
2022-10-19T07:09:23.057Z,4.87
2022-10-19T07:11:50.993Z,4.63
2022-10-19T07:14:19.033Z,4.60
2022-10-19T07:16:46.966Z,4.22
2022-10-19T07:19:16.316Z,4.15
2022-10-19T07:21:44.917Z,4.32
2022-10-19T07:24:12.955Z,4.28
2022-10-19T07:26:40.912Z,3.67
2022-10-19T07:29:08.910Z,3.80
2022-10-19T07:31:36.916Z,3.57
2022-10-19T07:34:06.640Z,2.80
2022-10-19T07:36:37.014Z,3.40
2022-10-19T07:39:06.841Z,3.92
2022-10-19T07:41:35.530Z,3.53
2022-10-19T07:44:03.733Z,4.20
2022-10-19T07:46:33.862Z,3.43
2022-10-19T07:49:01.868Z,3.50
2022-10-19T07:54:04.315Z,3.92
2022-10-19T07:56:32.902Z,3.80
2022-10-19T07:59:02.761Z,3.93
2022-10-19T08:01:32.447Z,3.90
2022-10-19T08:06:49.280Z,4.60
2022-10-19T08:09:47.170Z,5.75
2022-10-19T08:12:07.313Z,5.15
2022-10-19T08:14:35.598Z,5.50
2022-10-19T08:17:03.724Z,6.43
2022-10-19T08:19:31.650Z,5.20
2022-10-19T08:21:59.551Z,5.57
2022-10-19T08:24:30.890Z,6.70
2022-10-19T08:26:58.831Z,5.80
2022-10-19T08:29:29.126Z,5.70
2022-10-19T08:31:59.779Z,5.70
2022-10-19T08:34:27.782Z,5.07
2022-10-19T08:36:55.698Z,5.60
2022-10-19T08:39:23.632Z,4.63
2022-10-19T08:42:02.077Z,4.13
2022-10-19T08:44:58.089Z,3.67
2022-10-19T08:47:39.846Z,4.50
2022-10-19T08:50:18.727Z,3.85
2022-10-19T08:52:51.386Z,4.73
2022-10-19T08:55:25.662Z,3.90
2022-10-19T08:58:03.022Z,3.30
2022-10-19T09:03:31.896Z,3.75
2022-10-19T09:06:16.404Z,3.80
2022-10-19T09:08:44.528Z,3.13
2022-10-19T09:11:13.423Z,3.22
2022-10-19T09:14:04.231Z,2.80
2022-10-19T09:16:33.515Z,2.78
2022-10-19T09:19:01.491Z,2.72
2022-10-19T09:21:46.390Z,3.60
2022-10-19T09:24:28.767Z,2.53
2022-10-19T09:26:59.561Z,3.20
2022-10-19T09:29:34.003Z,2.10
2022-10-19T09:32:07.261Z,3.60
2022-10-19T09:34:41.703Z,4.28
2022-10-19T09:37:12.896Z,2.78
2022-10-19T09:39:50.489Z,2.55
2022-10-19T09:42:25.663Z,0.90
2022-10-19T09:44:56.251Z,0.50
2022-10-19T09:47:34.684Z,0.70
2022-10-19T09:50:20.911Z,0.50
2022-10-19T09:52:50.051Z,0.70
2022-10-19T09:55:36.783Z,0.40
2022-10-19T09:58:07.733Z,0.40
2022-10-19T10:00:39.866Z,0.50
2022-10-19T10:03:08.844Z,0.50
2022-10-19T10:05:39.109Z,0.60
2022-10-19T10:08:15.524Z,0.67
2022-10-19T10:10:46.773Z,0.80
2022-10-19T10:13:18.419Z,0.90
2022-10-19T10:15:50.376Z,0.80
2022-10-19T10:18:19.620Z,0.82
2022-10-19T10:21:04.931Z,0.82
2022-10-19T10:23:36.500Z,2.78
2022-10-19T10:26:06.232Z,1.02
2022-10-19T10:28:34.125Z,1.10
2022-10-19T10:31:06.342Z,0.97
2022-10-19T10:36:29.571Z,1.58
2022-10-19T10:39:06.262Z,2.53
2022-10-19T10:41:39.975Z,2.13
2022-10-19T10:44:16.663Z,1.70
2022-10-19T10:46:53.520Z,1.13
2022-10-19T10:49:27.402Z,0.98
2022-10-19T10:51:58.417Z,0.80
2022-10-19T10:54:28.253Z,0.80
2022-10-19T10:57:04.380Z,1.20
2022-10-19T10:59:43.187Z,0.80
2022-10-19T11:02:23.208Z,0.85
2022-10-19T11:04:56.769Z,0.55
2022-10-19T11:07:27.191Z,0.65
2022-10-19T11:09:59.394Z,0.60
2022-10-19T11:12:35.983Z,0.73
2022-10-19T11:15:13.038Z,0.70
2022-10-19T11:17:56.447Z,0.55
2022-10-19T11:20:27.856Z,2.20
2022-10-19T11:23:03.267Z,1.25
2022-10-19T11:25:37.281Z,0.80
2022-10-19T11:28:19.495Z,1.25
2022-10-19T11:30:57.937Z,0.98
2022-10-19T11:33:40.327Z,0.70
2022-10-19T11:36:19.253Z,1.00
2022-10-19T11:38:57.317Z,0.70
2022-10-19T11:41:33.173Z,0.73
2022-10-19T11:44:18.347Z,0.80
2022-10-19T11:47:00.036Z,0.80
2022-10-19T11:49:47.743Z,0.68
2022-10-19T11:52:21.638Z,0.80
2022-10-19T11:55:03.127Z,0.57
2022-10-19T11:57:36.279Z,0.50
2022-10-19T12:00:27.303Z,0.90
2022-10-19T12:03:43.361Z,0.60
2022-10-19T12:06:19.458Z,0.57
2022-10-19T12:08:58.415Z,0.75
2022-10-19T12:11:35.331Z,0.60
2022-10-19T12:14:07.018Z,0.75
2022-10-19T12:16:39.252Z,0.52
2022-10-19T12:19:13.128Z,0.70
2022-10-19T12:21:44.091Z,1.25
2022-10-19T12:24:16.921Z,0.60
2022-10-19T12:26:46.420Z,0.43
2022-10-19T12:29:17.468Z,0.43
2022-10-19T12:31:47.914Z,0.55
2022-10-19T12:34:27.883Z,0.50
2022-10-19T12:37:02.105Z,0.70
2022-10-19T12:39:35.323Z,0.60
2022-10-19T12:42:12.446Z,0.57
2022-10-19T12:45:07.373Z,0.55
2022-10-19T12:47:35.897Z,0.60
2022-10-19T12:50:04.977Z,0.55
2022-10-19T12:52:45.329Z,0.77
2022-10-19T12:55:25.196Z,0.60
2022-10-19T12:58:02.935Z,0.60
2022-10-19T13:00:33.047Z,0.70
2022-10-19T13:03:04.559Z,0.50
2022-10-19T13:05:33.987Z,0.60
2022-10-19T13:08:06.968Z,0.70
2022-10-19T13:10:37.269Z,0.60
2022-10-19T13:13:05.229Z,0.60
2022-10-19T13:15:53.846Z,0.57
2022-10-19T13:19:08.231Z,0.60
2022-10-19T13:22:24.269Z,0.73
2022-10-19T13:25:28.969Z,0.70
2022-10-19T13:28:02.340Z,1.02
2022-10-19T13:31:05.873Z,0.80
2022-10-19T13:33:48.062Z,0.50
2022-10-19T13:36:16.337Z,0.40
2022-10-19T13:38:46.156Z,0.60
2022-10-19T13:41:21.585Z,0.50
2022-10-19T13:43:59.175Z,0.40
2022-10-19T13:46:43.547Z,0.60
2022-10-19T13:49:32.972Z,0.68
2022-10-19T13:52:22.018Z,0.80
2022-10-19T13:55:19.889Z,0.77
2022-10-19T13:58:05.639Z,0.40
2022-10-19T14:00:45.920Z,0.35
2022-10-19T14:03:27.350Z,0.50
2022-10-19T14:06:14.377Z,0.40
2022-10-19T14:09:13.375Z,0.60
2022-10-19T14:11:43.154Z,0.40
2022-10-19T14:14:18.627Z,0.40
2022-10-19T14:16:52.492Z,0.40
2022-10-19T14:19:30.205Z,0.45
2022-10-19T14:21:59.825Z,0.60
2022-10-19T14:24:33.986Z,0.40
2022-10-19T14:27:03.593Z,0.70
2022-10-19T14:29:38.172Z,0.38
2022-10-19T14:32:06.254Z,0.80
2022-10-19T14:34:34.196Z,0.80
2022-10-19T14:37:02.161Z,0.55
2022-10-19T14:39:33.259Z,0.55
2022-10-19T14:42:05.913Z,0.70
2022-10-19T14:44:41.161Z,0.90
2022-10-19T14:47:18.206Z,0.95
2022-10-19T14:49:46.408Z,1.10
2022-10-19T14:52:19.328Z,1.30
2022-10-19T14:54:49.798Z,1.20
2022-10-19T14:57:24.773Z,1.40
2022-10-19T14:59:57.692Z,1.08
2022-10-19T15:02:31.292Z,1.07
2022-10-19T15:05:02.542Z,1.30
2022-10-19T15:07:36.563Z,1.27
2022-10-19T15:10:08.962Z,1.60
2022-10-19T15:12:40.191Z,1.70
2022-10-19T15:15:12.555Z,1.47
2022-10-19T15:17:52.196Z,1.17
2022-10-19T15:20:29.497Z,1.13
2022-10-19T15:22:58.597Z,1.70
2022-10-19T15:25:35.505Z,1.80
2022-10-19T15:28:34.878Z,1.30
2022-10-19T15:31:14.210Z,1.53
2022-10-19T15:33:46.461Z,1.70
2022-10-19T15:36:17.368Z,2.50
2022-10-19T15:38:47.389Z,2.87
2022-10-19T15:41:21.313Z,3.50
2022-10-19T15:43:51.520Z,3.60
2022-10-19T15:46:35.026Z,3.47
2022-10-19T15:49:06.107Z,3.50
2022-10-19T15:51:43.586Z,3.40
2022-10-19T15:54:12.214Z,2.43
2022-10-19T15:56:41.021Z,2.77
2022-10-19T15:59:14.493Z,2.00
2022-10-19T16:01:44.542Z,1.93
2022-10-19T16:04:12.923Z,1.90
2022-10-19T16:06:43.240Z,1.53
2022-10-19T16:09:17.526Z,1.80
2022-10-19T16:11:46.039Z,1.77
2022-10-19T16:14:14.058Z,2.13
2022-10-19T16:16:43.484Z,2.30
2022-10-19T16:19:12.316Z,2.80
2022-10-19T16:21:40.251Z,3.50
2022-10-19T16:24:08.169Z,2.33
2022-10-19T16:26:36.138Z,2.90
2022-10-19T16:29:04.969Z,2.10
2022-10-19T16:31:32.877Z,2.10
2022-10-19T16:34:02.120Z,2.10
2022-10-19T16:36:30.023Z,1.93
2022-10-19T16:39:00.600Z,1.50
2022-10-19T16:41:28.566Z,1.20
2022-10-19T16:43:56.819Z,1.37
2022-10-19T16:46:25.696Z,1.40
2022-10-19T16:48:54.068Z,1.37
2022-10-19T16:51:37.086Z,1.70
2022-10-19T16:54:06.910Z,1.77
2022-10-19T16:56:35.805Z,1.83
2022-10-19T16:59:05.576Z,2.13
2022-10-19T17:01:35.647Z,2.13
2022-10-19T17:04:03.613Z,2.57
2022-10-19T17:06:34.622Z,2.40
2022-10-19T17:09:36.771Z,2.80
2022-10-19T17:11:50.471Z,2.90
2022-10-19T17:14:18.358Z,2.40
2022-10-19T17:16:46.454Z,1.40
2022-10-19T17:19:14.380Z,1.30
2022-10-19T17:21:43.791Z,1.63
2022-10-19T17:24:20.208Z,1.80
2022-10-19T17:26:51.101Z,1.83
2022-10-19T17:29:19.704Z,1.83
2022-10-19T17:31:47.894Z,2.23
2022-10-19T17:34:16.411Z,3.20
2022-10-19T17:36:46.689Z,2.50
2022-10-19T17:39:17.724Z,3.37
2022-10-19T17:41:46.089Z,2.73
2022-10-19T17:44:14.126Z,3.20
2022-10-19T17:46:42.105Z,3.60
2022-10-19T17:49:10.259Z,3.37
2022-10-19T17:51:39.477Z,3.97
2022-10-19T17:54:10.322Z,4.90
2022-10-19T17:56:39.025Z,4.37
2022-10-19T17:59:09.098Z,4.90
2022-10-19T18:01:37.394Z,4.70
2022-10-19T18:04:06.222Z,4.83
2022-10-19T18:06:36.237Z,3.63
2022-10-19T18:09:06.862Z,4.33
2022-10-19T18:11:38.686Z,4.47
2022-10-19T18:14:08.922Z,4.70
2022-10-19T18:16:39.789Z,3.40
2022-10-19T18:19:09.071Z,3.77
2022-10-19T18:21:39.543Z,3.40
2022-10-19T18:24:12.812Z,3.10
2022-10-19T18:26:44.709Z,2.70
2022-10-19T18:29:14.794Z,3.37
2022-10-19T18:31:42.902Z,2.73
2022-10-19T18:34:15.709Z,3.00
2022-10-19T18:36:43.866Z,3.60
2022-10-19T18:39:13.736Z,4.00
2022-10-19T18:41:42.185Z,5.40
2022-10-19T18:44:13.874Z,5.00
2022-10-19T18:46:42.269Z,5.17
2022-10-19T18:49:12.519Z,5.57
2022-10-19T18:51:40.460Z,6.50
2022-10-19T18:54:08.364Z,7.30
2022-10-19T18:56:37.198Z,7.07
2022-10-19T18:59:05.653Z,6.83
2022-10-19T19:01:35.123Z,7.43
2022-10-19T19:04:07.886Z,7.00
2022-10-19T19:06:36.488Z,6.40
2022-10-19T19:09:07.593Z,6.57
2022-10-19T19:11:38.209Z,6.90
2022-10-19T19:14:08.530Z,5.40
2022-10-19T19:16:39.201Z,5.20
2022-10-19T19:19:08.148Z,5.13
2022-10-19T19:21:36.723Z,4.20
2022-10-19T19:24:07.395Z,3.87
2022-10-19T19:26:38.461Z,3.90
2022-10-19T19:29:06.758Z,4.07
2022-10-19T19:31:34.860Z,4.93
2022-10-19T19:34:05.836Z,4.57
2022-10-19T19:36:33.860Z,4.60
2022-10-19T19:39:01.868Z,4.70
2022-10-19T19:41:31.223Z,5.07
2022-10-19T19:43:59.149Z,4.30
2022-10-19T19:46:27.621Z,5.23
2022-10-19T19:49:01.040Z,5.60
2022-10-19T19:51:31.811Z,4.73
2022-10-19T19:54:00.657Z,5.90
2022-10-19T19:56:29.629Z,6.03
2022-10-19T19:58:59.160Z,6.07
2022-10-19T20:01:27.680Z,6.23
2022-10-19T20:03:58.278Z,6.10
2022-10-19T20:06:26.413Z,6.40
2022-10-19T20:08:56.858Z,6.23
2022-10-19T20:11:25.985Z,7.03
2022-10-19T20:13:54.151Z,6.40
2022-10-19T20:16:26.717Z,6.10
2022-10-19T20:19:00.988Z,6.17
2022-10-19T20:21:29.061Z,5.83
2022-10-19T20:23:58.546Z,6.10
2022-10-19T20:26:27.309Z,5.77
2022-10-19T20:28:55.413Z,5.30
2022-10-19T20:31:24.115Z,5.53
2022-10-19T20:33:52.176Z,6.07
2022-10-19T20:36:22.127Z,5.13
2022-10-19T20:38:51.869Z,5.13
2022-10-19T20:41:22.559Z,4.57
2022-10-19T20:43:50.761Z,4.00
2022-10-19T20:46:22.239Z,4.20
2022-10-19T20:48:51.236Z,3.50
2022-10-19T20:51:21.190Z,3.43
2022-10-19T20:53:51.272Z,3.80
2022-10-19T20:56:23.142Z,3.30
2022-10-19T20:58:56.046Z,3.63
2022-10-19T21:01:24.403Z,2.90
2022-10-19T21:03:54.238Z,2.93
2022-10-19T21:06:23.279Z,2.93
2022-10-19T21:08:52.017Z,3.27
2022-10-19T21:11:23.374Z,3.40
2022-10-19T21:13:55.522Z,3.40
2022-10-19T21:16:27.479Z,3.47
2022-10-19T21:18:55.946Z,3.57
2022-10-19T21:21:27.178Z,4.30
2022-10-19T21:23:58.269Z,4.27
2022-10-19T21:26:29.039Z,6.23
2022-10-19T21:28:57.127Z,5.80
2022-10-19T21:31:26.780Z,5.57
2022-10-19T21:33:55.433Z,6.03
2022-10-19T21:36:25.110Z,6.03
2022-10-19T21:38:53.056Z,6.27
2022-10-19T21:41:25.492Z,6.83
2022-10-19T21:43:56.064Z,6.80
2022-10-19T21:46:24.371Z,6.97
2022-10-19T21:48:52.737Z,6.73
2022-10-19T21:51:29.144Z,6.97
2022-10-19T21:53:57.119Z,6.37
2022-10-19T21:56:25.101Z,6.30
2022-10-19T21:58:55.142Z,6.30
2022-10-19T22:01:25.396Z,5.70
2022-10-19T22:03:57.250Z,6.20
2022-10-19T22:06:25.790Z,5.33
2022-10-19T22:08:53.948Z,5.43
2022-10-19T22:11:22.137Z,5.30
2022-10-19T22:13:50.219Z,4.43
2022-10-19T22:16:20.852Z,4.80
2022-10-19T22:18:49.713Z,5.60
2022-10-19T22:21:20.460Z,4.50
2022-10-19T22:23:53.454Z,4.63
2022-10-19T22:26:23.702Z,4.47
2022-10-19T22:28:52.093Z,5.00
2022-10-19T22:31:21.452Z,4.53
2022-10-19T22:33:49.422Z,5.57
2022-10-19T22:36:17.497Z,5.73
2022-10-19T22:38:45.415Z,7.10
2022-10-19T22:41:13.513Z,6.80
2022-10-19T22:43:41.580Z,7.07
2022-10-19T22:46:09.711Z,6.80
2022-10-19T22:48:39.128Z,6.73
2022-10-19T22:51:07.332Z,6.70
2022-10-19T22:53:35.489Z,6.70
2022-10-19T22:56:03.638Z,6.67
2022-10-19T22:58:31.759Z,6.60
2022-10-19T23:01:04.810Z,7.37
2022-10-19T23:03:32.961Z,7.07
2022-10-19T23:06:02.479Z,6.80
2022-10-19T23:08:30.662Z,7.33
2022-10-19T23:10:58.863Z,7.93
2022-10-19T23:13:26.976Z,7.17
2022-10-19T23:15:55.043Z,7.40
2022-10-19T23:18:23.098Z,6.27
2022-10-19T23:20:55.252Z,7.50
2022-10-19T23:23:25.062Z,7.40
2022-10-19T23:26:00.874Z,7.27
2022-10-19T23:28:29.364Z,7.20
2022-10-19T23:30:58.553Z,7.17
2022-10-19T23:33:27.201Z,6.67
2022-10-19T23:35:55.382Z,6.83
2022-10-19T23:38:24.824Z,6.70
2022-10-19T23:40:52.876Z,7.03
2022-10-19T23:43:20.791Z,7.20
2022-10-19T23:45:48.694Z,6.57
2022-10-19T23:48:16.639Z,6.87
2022-10-19T23:50:44.569Z,6.43
2022-10-19T23:53:12.695Z,7.27
2022-10-19T23:55:41.966Z,6.90
2022-10-19T23:58:09.849Z,6.90
